createdAt,value
2023-09-02T00:01:44.803Z,18.78
2023-09-02T00:04:06.687Z,18.76
2023-09-02T00:06:28.417Z,18.75
2023-09-02T00:08:50.127Z,18.73
2023-09-02T00:11:11.776Z,18.70
2023-09-02T00:13:33.500Z,18.68
2023-09-02T00:15:56.396Z,18.66
2023-09-02T00:18:18.120Z,18.65
2023-09-02T00:20:39.844Z,18.64
2023-09-02T00:23:01.573Z,18.63
2023-09-02T00:25:26.113Z,18.63
2023-09-02T00:27:47.781Z,18.61
2023-09-02T00:30:10.253Z,18.60
2023-09-02T00:32:31.944Z,18.59
2023-09-02T00:34:53.625Z,18.58
2023-09-02T00:37:15.484Z,18.60
2023-09-02T00:39:37.683Z,18.60
2023-09-02T00:42:01.842Z,18.60
2023-09-02T00:44:23.627Z,18.60
2023-09-02T00:46:46.834Z,18.59
2023-09-02T00:49:08.655Z,18.57
2023-09-02T00:51:30.352Z,18.54
2023-09-02T00:53:52.046Z,18.51
2023-09-02T00:56:16.103Z,18.49
2023-09-02T00:58:37.833Z,18.49
2023-09-02T01:01:00.534Z,18.50
2023-09-02T01:03:22.579Z,18.49
2023-09-02T01:05:44.560Z,18.51
2023-09-02T01:08:07.022Z,18.52
2023-09-02T01:10:30.514Z,18.52
2023-09-02T01:12:52.429Z,18.52
2023-09-02T01:15:14.140Z,18.50
2023-09-02T01:17:35.894Z,18.51
2023-09-02T01:20:00.853Z,18.51
2023-09-02T01:23:09.394Z,18.52
2023-09-02T01:26:21.081Z,18.52
2023-09-02T01:28:47.377Z,18.50
2023-09-02T01:31:16.246Z,18.51
2023-09-02T01:33:41.304Z,18.51
2023-09-02T01:36:05.091Z,18.50
2023-09-02T01:38:29.641Z,18.51
2023-09-02T01:40:54.752Z,18.50
2023-09-02T01:43:21.910Z,18.48
2023-09-02T01:45:44.677Z,18.47
2023-09-02T01:48:08.406Z,18.49
2023-09-02T01:50:34.021Z,18.49
2023-09-02T01:52:58.639Z,18.50
2023-09-02T01:55:21.194Z,18.48
2023-09-02T01:57:45.366Z,18.48
2023-09-02T02:00:08.157Z,18.49
2023-09-02T02:02:33.633Z,18.48
2023-09-02T02:05:01.942Z,18.48
2023-09-02T02:07:32.810Z,18.47
2023-09-02T02:10:00.487Z,18.46
2023-09-02T02:12:23.371Z,18.43
2023-09-02T02:14:48.272Z,18.41
2023-09-02T02:17:10.344Z,18.40
2023-09-02T02:19:32.442Z,18.42
2023-09-02T02:21:54.956Z,18.42
2023-09-02T02:24:16.660Z,18.42
2023-09-02T02:26:38.286Z,18.42
2023-09-02T02:29:00.058Z,18.35
2023-09-02T02:31:21.730Z,18.36
2023-09-02T02:33:43.464Z,18.39
2023-09-02T02:36:06.731Z,18.38
2023-09-02T02:38:29.438Z,18.38
2023-09-02T02:40:51.074Z,18.37
2023-09-02T02:43:12.732Z,18.35
2023-09-02T02:45:35.093Z,18.33
2023-09-02T02:47:58.740Z,18.30
2023-09-02T02:50:20.513Z,18.26
2023-09-02T02:52:42.372Z,18.21
2023-09-02T02:55:04.851Z,18.15
2023-09-02T02:57:26.801Z,18.13
2023-09-02T02:59:52.558Z,18.10
2023-09-02T03:02:14.603Z,18.09
2023-09-02T03:04:36.366Z,18.09
2023-09-02T03:06:58.080Z,18.09
2023-09-02T03:09:19.857Z,18.08
2023-09-02T03:11:45.774Z,18.06
2023-09-02T03:14:07.421Z,18.03
2023-09-02T03:16:29.853Z,18.05
2023-09-02T03:18:54.388Z,18.06
2023-09-02T03:21:16.179Z,18.05
2023-09-02T03:23:37.840Z,18.05
2023-09-02T03:26:17.738Z,18.05
2023-09-02T03:28:41.808Z,18.04
2023-09-02T03:31:11.687Z,18.03
2023-09-02T03:33:37.112Z,18.02
2023-09-02T03:36:01.030Z,18.02
2023-09-02T03:38:22.679Z,18.02
2023-09-02T03:40:44.447Z,18.03
2023-09-02T03:43:06.933Z,18.03
2023-09-02T03:45:28.651Z,18.04
2023-09-02T03:47:51.382Z,18.04
2023-09-02T03:50:14.011Z,18.04
2023-09-02T03:52:35.686Z,18.03
2023-09-02T03:54:59.126Z,18.03
2023-09-02T03:57:21.127Z,18.01
2023-09-02T03:59:42.790Z,18.01
2023-09-02T04:02:04.539Z,18.01
2023-09-02T04:04:27.101Z,17.99
2023-09-02T04:06:48.888Z,18.00
2023-09-02T04:09:10.952Z,18.00
2023-09-02T04:11:32.933Z,18.00
2023-09-02T04:13:55.534Z,17.98
2023-09-02T04:16:17.248Z,17.96
2023-09-02T04:18:39.572Z,17.95
2023-09-02T04:21:03.998Z,17.95
2023-09-02T04:23:27.476Z,17.95
2023-09-02T04:25:57.976Z,17.95
2023-09-02T04:28:21.036Z,17.94
2023-09-02T04:30:44.877Z,17.91
2023-09-02T04:33:07.928Z,17.90
2023-09-02T04:35:30.175Z,17.90
2023-09-02T04:37:52.177Z,17.90
2023-09-02T04:40:15.375Z,17.89
2023-09-02T04:42:42.186Z,17.85
2023-09-02T04:45:04.767Z,17.86
2023-09-02T04:47:27.514Z,17.84
2023-09-02T04:49:51.226Z,17.84
2023-09-02T04:52:12.888Z,17.83
2023-09-02T04:54:34.584Z,17.83
2023-09-02T04:56:56.354Z,17.83
2023-09-02T04:59:18.099Z,17.83
2023-09-02T05:01:41.953Z,17.81
2023-09-02T05:04:03.886Z,17.77
2023-09-02T05:06:25.622Z,17.74
2023-09-02T05:08:55.156Z,17.75
2023-09-02T05:11:18.119Z,17.77
2023-09-02T05:13:39.925Z,17.79
2023-09-02T05:16:02.339Z,17.80
2023-09-02T05:18:24.292Z,17.81
2023-09-02T05:20:48.782Z,17.83
2023-09-02T05:23:13.958Z,17.85
2023-09-02T05:25:35.915Z,17.86
2023-09-02T05:27:59.591Z,17.86
2023-09-02T05:30:21.308Z,17.86
2023-09-02T05:32:42.995Z,17.87
2023-09-02T05:35:05.403Z,17.92
2023-09-02T05:37:27.072Z,17.96
2023-09-02T05:39:48.880Z,18.00
2023-09-02T05:42:10.791Z,18.03
2023-09-02T05:44:35.714Z,18.05
2023-09-02T05:46:57.401Z,18.07
2023-09-02T05:49:19.580Z,18.11
2023-09-02T05:51:41.588Z,18.12
2023-09-02T05:54:03.993Z,18.15
2023-09-02T05:56:26.648Z,18.19
2023-09-02T05:58:48.470Z,18.22
2023-09-02T06:01:10.217Z,18.23
2023-09-02T06:03:32.223Z,18.22
2023-09-02T06:05:53.934Z,18.25
2023-09-02T06:08:16.458Z,18.27
2023-09-02T06:10:39.179Z,18.30
2023-09-02T06:13:00.967Z,18.31
2023-09-02T06:15:22.877Z,18.33
2023-09-02T06:17:44.632Z,18.36
2023-09-02T06:20:07.533Z,18.43
2023-09-02T06:22:29.411Z,18.45
2023-09-02T06:24:51.543Z,18.46
2023-09-02T06:27:13.222Z,18.47
2023-09-02T06:29:35.121Z,18.50
2023-09-02T06:31:56.953Z,18.52
2023-09-02T06:34:23.932Z,18.58
2023-09-02T06:36:46.462Z,18.63
2023-09-02T06:39:08.110Z,18.70
2023-09-02T06:41:29.780Z,18.74
2023-09-02T06:43:51.887Z,18.80
2023-09-02T06:46:20.879Z,18.88
2023-09-02T06:48:43.006Z,18.96
2023-09-02T06:51:04.858Z,19.01
2023-09-02T06:53:26.617Z,19.05
2023-09-02T06:55:48.280Z,19.07
2023-09-02T06:58:09.973Z,19.14
2023-09-02T07:00:31.696Z,19.21
2023-09-02T07:02:53.459Z,19.30
2023-09-02T07:05:15.192Z,19.35
2023-09-02T07:07:39.210Z,19.48
2023-09-02T07:10:02.000Z,19.54
2023-09-02T07:12:23.652Z,19.60
2023-09-02T07:14:45.669Z,19.61
2023-09-02T07:17:07.350Z,19.61
2023-09-02T07:19:28.966Z,19.60
2023-09-02T07:21:51.013Z,19.61
2023-09-02T07:24:12.672Z,19.57
2023-09-02T07:26:34.365Z,19.57
2023-09-02T07:28:56.285Z,19.59
2023-09-02T07:31:18.268Z,19.62
2023-09-02T07:33:42.649Z,19.65
2023-09-02T07:36:14.617Z,19.71
2023-09-02T07:38:40.175Z,19.73
2023-09-02T07:41:02.527Z,19.77
2023-09-02T07:43:24.315Z,19.78
2023-09-02T07:45:46.068Z,19.79
2023-09-02T07:48:07.778Z,19.79
2023-09-02T07:50:29.546Z,19.83
2023-09-02T07:52:51.329Z,19.88
2023-09-02T07:55:13.032Z,19.92
2023-09-02T07:57:34.777Z,19.95
2023-09-02T07:59:56.513Z,19.98
2023-09-02T08:02:18.203Z,19.98
2023-09-02T08:04:39.987Z,19.96
2023-09-02T08:07:01.700Z,19.97
2023-09-02T08:09:23.408Z,20.01
2023-09-02T08:11:45.049Z,20.06
2023-09-02T08:14:06.788Z,20.13
2023-09-02T08:16:28.464Z,20.20
2023-09-02T08:18:50.107Z,20.26
2023-09-02T08:21:12.479Z,20.28
2023-09-02T08:23:34.133Z,20.25
2023-09-02T08:25:55.835Z,20.16
2023-09-02T08:28:17.684Z,20.16
2023-09-02T08:30:42.752Z,20.12
2023-09-02T08:33:04.997Z,20.09
2023-09-02T08:35:26.849Z,20.05
2023-09-02T08:37:48.584Z,19.99
2023-09-02T08:40:10.598Z,20.01
2023-09-02T08:42:35.828Z,20.02
2023-09-02T08:45:00.562Z,19.95
2023-09-02T08:47:25.601Z,19.98
2023-09-02T08:49:47.807Z,19.95
2023-09-02T08:52:10.732Z,19.94
2023-09-02T08:54:33.953Z,19.93
2023-09-02T08:56:58.920Z,19.93
2023-09-02T08:59:21.329Z,19.96
2023-09-02T09:01:46.852Z,19.98
2023-09-02T09:04:09.678Z,19.98
2023-09-02T09:06:34.969Z,19.98
2023-09-02T09:08:58.246Z,19.94
2023-09-02T09:11:23.951Z,19.92
2023-09-02T09:13:47.536Z,19.93
2023-09-02T09:16:09.559Z,19.96
2023-09-02T09:18:31.703Z,20.00
2023-09-02T09:20:54.911Z,20.03
2023-09-02T09:23:16.959Z,20.07
2023-09-02T09:25:38.973Z,20.13
2023-09-02T09:28:12.345Z,20.15
2023-09-02T09:30:34.178Z,20.17
2023-09-02T09:33:02.147Z,20.21
2023-09-02T09:35:23.911Z,20.20
2023-09-02T09:37:57.110Z,20.29
2023-09-02T09:40:31.302Z,20.38
2023-09-02T09:42:53.106Z,20.41
2023-09-02T09:45:14.747Z,20.41
2023-09-02T09:47:36.429Z,20.39
2023-09-02T09:50:18.279Z,20.44
2023-09-02T09:52:40.074Z,20.45
2023-09-02T09:55:01.754Z,20.47
2023-09-02T09:57:38.224Z,20.53
2023-09-02T10:00:00.281Z,20.57
2023-09-02T10:02:23.165Z,20.66
2023-09-02T10:04:55.728Z,20.72
2023-09-02T10:07:28.255Z,20.70
2023-09-02T10:09:50.222Z,20.68
2023-09-02T10:12:19.820Z,20.64
2023-09-02T10:14:50.178Z,20.65
2023-09-02T10:17:12.374Z,20.68
2023-09-02T10:19:35.907Z,20.71
2023-09-02T10:21:59.076Z,20.73
2023-09-02T10:24:21.842Z,20.76
2023-09-02T10:26:52.998Z,20.78
2023-09-02T10:29:22.427Z,20.81
2023-09-02T10:31:50.183Z,20.84
2023-09-02T10:34:18.937Z,20.87
2023-09-02T10:36:48.332Z,20.89
2023-09-02T10:39:22.704Z,20.94
2023-09-02T10:41:48.813Z,20.96
2023-09-02T10:44:12.897Z,20.97
2023-09-02T10:46:34.867Z,20.98
2023-09-02T10:48:59.950Z,21.00
2023-09-02T10:51:23.090Z,21.03
2023-09-02T10:53:54.493Z,21.05
2023-09-02T10:56:26.607Z,21.10
2023-09-02T10:58:48.636Z,21.08
2023-09-02T11:01:10.580Z,21.04
2023-09-02T11:03:50.306Z,21.12
2023-09-02T11:06:13.928Z,21.20
2023-09-02T11:08:54.946Z,21.24
2023-09-02T11:11:19.056Z,21.27
2023-09-02T11:14:10.163Z,21.39
2023-09-02T11:16:32.877Z,21.43
2023-09-02T11:18:54.961Z,21.49
2023-09-02T11:21:40.536Z,21.55
2023-09-02T11:24:23.104Z,21.57
2023-09-02T11:27:01.248Z,21.63
2023-09-02T11:29:30.610Z,21.69
2023-09-02T11:32:01.045Z,21.69
2023-09-02T11:34:24.698Z,21.72
2023-09-02T11:36:47.171Z,21.75
2023-09-02T11:39:09.064Z,21.80
2023-09-02T11:41:30.715Z,21.83
2023-09-02T11:43:52.479Z,21.87
2023-09-02T11:46:15.252Z,21.86
2023-09-02T11:48:37.489Z,21.86
2023-09-02T11:51:00.305Z,21.88
2023-09-02T11:53:22.235Z,21.87
2023-09-02T11:55:45.301Z,21.89
2023-09-02T11:58:11.547Z,21.96
2023-09-02T12:00:33.706Z,22.09
2023-09-02T12:03:00.341Z,22.27
2023-09-02T12:05:22.775Z,22.36
2023-09-02T12:07:47.723Z,22.31
2023-09-02T12:10:12.125Z,22.31
2023-09-02T12:12:36.025Z,22.39
2023-09-02T12:14:58.738Z,22.41
2023-09-02T12:17:20.809Z,22.39
2023-09-02T12:19:42.858Z,22.40
2023-09-02T12:22:05.355Z,22.38
2023-09-02T12:24:28.405Z,22.34
2023-09-02T12:26:52.158Z,22.30
2023-09-02T12:29:23.041Z,22.29
2023-09-02T12:32:01.964Z,22.31
2023-09-02T12:34:25.230Z,22.30
2023-09-02T12:36:47.070Z,22.28
2023-09-02T12:39:23.993Z,22.28
2023-09-02T12:41:45.808Z,22.33
2023-09-02T12:44:16.540Z,22.38
2023-09-02T12:46:38.472Z,22.47
2023-09-02T12:49:00.364Z,22.64
2023-09-02T12:51:29.203Z,22.76
2023-09-02T12:53:51.534Z,22.82
2023-09-02T12:56:13.285Z,22.97
2023-09-02T12:58:35.069Z,23.05
2023-09-02T13:01:01.082Z,23.07
2023-09-02T13:03:23.169Z,23.12
2023-09-02T13:05:45.233Z,23.18
2023-09-02T13:08:06.957Z,23.30
2023-09-02T13:10:29.317Z,23.49
2023-09-02T13:12:51.060Z,23.63
2023-09-02T13:15:14.009Z,23.51
2023-09-02T13:17:36.826Z,23.31
2023-09-02T13:19:58.893Z,23.19
2023-09-02T13:22:20.959Z,23.08
2023-09-02T13:24:48.004Z,23.00
2023-09-02T13:27:09.805Z,22.93
2023-09-02T13:29:33.095Z,22.88
2023-09-02T13:31:56.681Z,22.84
2023-09-02T13:34:31.315Z,22.82
2023-09-02T13:37:02.996Z,22.81
2023-09-02T13:39:24.823Z,22.77
2023-09-02T13:41:46.756Z,22.77
2023-09-02T13:44:12.143Z,22.78
2023-09-02T13:46:34.643Z,22.86
2023-09-02T13:48:56.448Z,23.01
2023-09-02T13:51:23.175Z,23.13
2023-09-02T13:53:45.058Z,23.22
2023-09-02T13:56:06.784Z,23.35
2023-09-02T13:58:35.698Z,23.44
2023-09-02T14:00:57.486Z,23.58
2023-09-02T14:03:26.882Z,23.74
2023-09-02T14:05:52.826Z,23.84
2023-09-02T14:08:19.776Z,23.91
2023-09-02T14:10:41.613Z,23.98
2023-09-02T14:13:10.154Z,24.13
2023-09-02T14:15:32.532Z,24.25
2023-09-02T14:17:54.361Z,24.32
2023-09-02T14:20:16.189Z,24.40
2023-09-02T14:22:38.010Z,24.49
2023-09-02T14:24:59.752Z,24.47
2023-09-02T14:27:21.915Z,24.51
2023-09-02T14:29:43.980Z,24.58
2023-09-02T14:32:07.427Z,24.69
2023-09-02T14:34:29.299Z,24.83
2023-09-02T14:36:51.015Z,24.81
2023-09-02T14:39:15.005Z,24.75
2023-09-02T14:41:36.945Z,24.74
2023-09-02T14:43:58.744Z,24.68
2023-09-02T14:46:20.523Z,24.59
2023-09-02T14:48:43.249Z,24.65
2023-09-02T14:51:05.130Z,24.52
2023-09-02T14:53:27.086Z,24.53
2023-09-02T14:55:52.346Z,24.42
2023-09-02T14:58:17.133Z,24.29
2023-09-02T15:00:38.898Z,24.31
2023-09-02T15:03:02.751Z,24.42
2023-09-02T15:05:27.471Z,24.53
2023-09-02T15:07:52.790Z,24.61
2023-09-02T15:10:26.221Z,24.66
2023-09-02T15:12:48.196Z,24.65
2023-09-02T15:15:10.208Z,24.67
2023-09-02T15:17:33.004Z,24.70
2023-09-02T15:19:56.540Z,24.73
2023-09-02T15:22:20.183Z,24.81
2023-09-02T15:24:42.776Z,24.86
2023-09-02T15:27:05.431Z,24.88
2023-09-02T15:29:28.231Z,24.91
2023-09-02T15:31:52.891Z,24.83
2023-09-02T15:34:16.769Z,24.65
2023-09-02T15:36:39.287Z,24.55
2023-09-02T15:39:01.688Z,24.59
2023-09-02T15:41:23.444Z,24.63
2023-09-02T15:43:45.225Z,24.66
2023-09-02T15:46:08.309Z,24.74
2023-09-02T15:48:30.011Z,24.75
2023-09-02T15:50:52.646Z,24.73
2023-09-02T15:53:15.745Z,24.80
2023-09-02T15:55:37.518Z,24.77
2023-09-02T15:57:59.244Z,24.73
2023-09-02T16:00:21.741Z,24.59
2023-09-02T16:02:44.603Z,24.41
2023-09-02T16:05:06.857Z,24.26
2023-09-02T16:07:28.614Z,24.14
2023-09-02T16:09:50.359Z,24.06
2023-09-02T16:12:12.004Z,24.00
2023-09-02T16:14:33.703Z,24.02
2023-09-02T16:17:02.762Z,24.03
2023-09-02T16:19:24.482Z,24.07
2023-09-02T16:21:46.215Z,24.12
2023-09-02T16:24:08.347Z,24.19
2023-09-02T16:26:30.073Z,24.24
2023-09-02T16:28:51.857Z,24.23
2023-09-02T16:31:13.637Z,24.23
2023-09-02T16:33:36.283Z,24.25
2023-09-02T16:35:59.922Z,24.27
2023-09-02T16:38:21.897Z,24.31
2023-09-02T16:40:43.738Z,24.34
2023-09-02T16:43:06.011Z,24.35
2023-09-02T16:45:28.187Z,24.30
2023-09-02T16:47:51.677Z,24.28
2023-09-02T16:50:16.145Z,24.22
2023-09-02T16:52:46.010Z,24.17
2023-09-02T16:55:10.846Z,24.15
2023-09-02T16:57:41.278Z,24.13
2023-09-02T17:00:06.467Z,24.11
2023-09-02T17:02:34.531Z,24.09
2023-09-02T17:04:59.466Z,24.07
2023-09-02T17:07:21.110Z,24.07
2023-09-02T17:09:42.922Z,24.04
2023-09-02T17:12:07.845Z,23.99
2023-09-02T17:14:29.789Z,23.90
2023-09-02T17:16:52.622Z,23.79
2023-09-02T17:19:20.264Z,23.69
2023-09-02T17:21:42.492Z,23.60
2023-09-02T17:24:04.790Z,23.53
2023-09-02T17:26:26.568Z,23.45
2023-09-02T17:28:49.418Z,23.41
2023-09-02T17:31:11.206Z,23.35
2023-09-02T17:33:35.143Z,23.30
2023-09-02T17:35:57.039Z,23.23
2023-09-02T17:38:19.192Z,23.18
2023-09-02T17:40:41.059Z,23.13
2023-09-02T17:43:02.936Z,23.05
2023-09-02T17:45:25.105Z,22.98
2023-09-02T17:47:49.114Z,22.91
2023-09-02T17:50:12.707Z,22.87
2023-09-02T17:52:34.409Z,22.78
2023-09-02T17:54:56.753Z,22.72
2023-09-02T17:57:18.695Z,22.65
2023-09-02T17:59:40.374Z,22.59
2023-09-02T18:02:06.146Z,22.55
2023-09-02T18:04:28.419Z,22.51
2023-09-02T18:06:50.060Z,22.45
2023-09-02T18:09:11.760Z,22.41
2023-09-02T18:11:34.280Z,22.36
2023-09-02T18:13:55.994Z,22.32
2023-09-02T18:16:17.785Z,22.31
2023-09-02T18:18:39.627Z,22.25
2023-09-02T18:21:01.308Z,22.21
2023-09-02T18:23:23.103Z,22.17
2023-09-02T18:25:44.826Z,22.11
2023-09-02T18:28:06.673Z,22.06
2023-09-02T18:30:28.338Z,22.03
2023-09-02T18:32:50.115Z,21.99
2023-09-02T18:35:11.933Z,21.96
2023-09-02T18:37:34.211Z,21.91
2023-09-02T18:39:55.934Z,21.87
2023-09-02T18:42:17.592Z,21.81
2023-09-02T18:44:39.270Z,21.77
2023-09-02T18:47:01.079Z,21.72
2023-09-02T18:49:22.775Z,21.71
2023-09-02T18:51:44.716Z,21.65
2023-09-02T18:54:06.549Z,21.59
2023-09-02T18:56:29.404Z,21.55
2023-09-02T18:58:51.095Z,21.47
2023-09-02T19:01:13.649Z,21.44
2023-09-02T19:03:35.440Z,21.41
2023-09-02T19:05:57.130Z,21.36
2023-09-02T19:08:19.121Z,21.35
2023-09-02T19:10:41.055Z,21.30
2023-09-02T19:13:03.105Z,21.26
2023-09-02T19:15:24.763Z,21.22
2023-09-02T19:17:46.704Z,21.18
2023-09-02T19:20:09.170Z,21.12
2023-09-02T19:22:40.888Z,21.08
2023-09-02T19:25:02.608Z,21.04
2023-09-02T19:27:24.679Z,21.01
2023-09-02T19:29:46.314Z,20.98
2023-09-02T19:32:09.784Z,20.91
2023-09-02T19:34:31.529Z,20.85
2023-09-02T19:36:53.191Z,20.80
2023-09-02T19:39:20.549Z,20.76
2023-09-02T19:41:42.248Z,20.72
2023-09-02T19:44:04.217Z,20.68
2023-09-02T19:46:26.056Z,20.64
2023-09-02T19:48:47.833Z,20.58
2023-09-02T19:51:09.571Z,20.55
2023-09-02T19:53:31.365Z,20.48
2023-09-02T19:55:54.767Z,20.42
2023-09-02T19:58:16.576Z,20.37
2023-09-02T20:00:46.516Z,20.32
2023-09-02T20:03:09.682Z,20.28
2023-09-02T20:05:31.541Z,20.24
2023-09-02T20:07:53.184Z,20.18
2023-09-02T20:10:17.205Z,20.14
2023-09-02T20:12:39.106Z,20.10
2023-09-02T20:15:00.781Z,20.06
2023-09-02T20:17:22.470Z,20.04
2023-09-02T20:19:44.292Z,20.01
2023-09-02T20:22:06.275Z,19.97
2023-09-02T20:24:29.007Z,19.92
2023-09-02T20:26:52.268Z,19.88
2023-09-02T20:29:13.907Z,19.84
2023-09-02T20:31:35.570Z,19.81
2023-09-02T20:33:57.475Z,19.76
2023-09-02T20:36:20.705Z,19.73
2023-09-02T20:38:46.274Z,19.71
2023-09-02T20:41:08.032Z,19.70
2023-09-02T20:43:29.655Z,19.65
2023-09-02T20:45:51.362Z,19.60
2023-09-02T20:48:13.214Z,19.56
2023-09-02T20:50:40.221Z,19.49
2023-09-02T20:53:01.854Z,19.44
2023-09-02T20:55:23.747Z,19.41
2023-09-02T20:57:46.259Z,19.36
2023-09-02T21:00:08.705Z,19.33
2023-09-02T21:02:30.541Z,19.28
2023-09-02T21:04:52.322Z,19.23
2023-09-02T21:07:14.134Z,19.21
2023-09-02T21:09:35.759Z,19.19
2023-09-02T21:11:57.460Z,19.16
2023-09-02T21:14:19.151Z,19.13
2023-09-02T21:16:40.934Z,19.10
2023-09-02T21:19:02.634Z,19.09
2023-09-02T21:21:24.471Z,19.08
2023-09-02T21:23:46.287Z,19.03
2023-09-02T21:26:12.463Z,19.01
2023-09-02T21:28:37.875Z,18.97
2023-09-02T21:30:59.540Z,18.96
2023-09-02T21:33:21.235Z,18.93
2023-09-02T21:35:42.856Z,18.91
2023-09-02T21:38:04.836Z,18.88
2023-09-02T21:40:26.658Z,18.86
2023-09-02T21:42:48.305Z,18.81
2023-09-02T21:45:10.647Z,18.79
2023-09-02T21:47:32.519Z,18.76
2023-09-02T21:49:54.297Z,18.73
2023-09-02T21:52:22.682Z,18.72
2023-09-02T21:54:45.733Z,18.70
2023-09-02T21:57:07.558Z,18.67
2023-09-02T21:59:29.221Z,18.64
2023-09-02T22:01:50.974Z,18.61
2023-09-02T22:04:12.700Z,18.57
2023-09-02T22:06:35.043Z,18.51
2023-09-02T22:08:57.111Z,18.49
2023-09-02T22:11:19.574Z,18.47
2023-09-02T22:13:45.036Z,18.46
2023-09-02T22:16:07.628Z,18.44
2023-09-02T22:18:29.961Z,18.42
2023-09-02T22:20:53.818Z,18.39
2023-09-02T22:23:15.783Z,18.36
2023-09-02T22:25:39.087Z,18.34
2023-09-02T22:28:00.732Z,18.30
2023-09-02T22:30:22.380Z,18.25
2023-09-02T22:32:44.124Z,18.20
2023-09-02T22:35:06.345Z,18.14
2023-09-02T22:37:28.026Z,18.04
2023-09-02T22:39:49.759Z,17.94
2023-09-02T22:42:11.415Z,17.87
2023-09-02T22:44:33.070Z,17.82
2023-09-02T22:46:55.201Z,17.81
2023-09-02T22:49:28.323Z,17.76
2023-09-02T22:51:49.961Z,17.71
2023-09-02T22:54:11.597Z,17.67
2023-09-02T22:56:33.303Z,17.63
2023-09-02T22:58:55.072Z,17.60
2023-09-02T23:01:16.722Z,17.60
2023-09-02T23:03:38.793Z,17.60
2023-09-02T23:06:10.470Z,17.60
2023-09-02T23:08:32.982Z,17.58
2023-09-02T23:10:59.021Z,17.59
2023-09-02T23:13:20.966Z,17.57
2023-09-02T23:15:42.919Z,17.59
2023-09-02T23:18:05.001Z,17.59
2023-09-02T23:20:28.836Z,17.57
2023-09-02T23:22:51.690Z,17.54
2023-09-02T23:25:14.252Z,17.54
2023-09-02T23:27:35.942Z,17.53
2023-09-02T23:29:58.436Z,17.50
2023-09-02T23:32:21.722Z,17.48
2023-09-02T23:34:43.374Z,17.47
2023-09-02T23:37:05.532Z,17.44
2023-09-02T23:39:27.240Z,17.42
2023-09-02T23:41:48.877Z,17.38
2023-09-02T23:44:10.541Z,17.33
2023-09-02T23:46:32.313Z,17.29
2023-09-02T23:48:54.173Z,17.27
2023-09-02T23:51:15.863Z,17.22
2023-09-02T23:53:38.653Z,17.20
2023-09-02T23:56:00.295Z,17.17
2023-09-02T23:58:22.223Z,17.13
